Weather reports worldwide

Advertisment
Cairnwell, United Kingdom (3072): temperature & dewpoint: 19.05.2018 04:00:00 - 25.05.2018 04:00:00 (BST)Cairnwell, United Kingdom (3072): wind speed & gusts: 19.05.2018 04:00:00 - 25.05.2018 04:00:00 (BST)Cairnwell, United Kingdom (3072): wind direction: 19.05.2018 04:00:00 - 25.05.2018 04:00:00 (BST)
Date & Time tt [°C] td [°C] ff [km/h] ff [kn] fx [km/h] fx [kn] dd
25.05.2018 04:00:00 10,8 6,9 5 3 - - E
25.05.2018 03:00:00 10,7 6,8 5 3 - - ESE
25.05.2018 02:00:00 10,1 6,5 9 5 - - ESE
25.05.2018 01:00:00 9,6 3,6 8 4 - - SSE
25.05.2018 00:00:00 9,5 2,0 16 9 - - SSE
24.05.2018 23:00:00 9,8 2,1 16 9 - - SSE
24.05.2018 22:00:00 10,3 3,3 21 11 - - SSE
24.05.2018 21:00:00 10,0 2,5 5 3 - - SSW
24.05.2018 20:00:00 11,0 3,7 16 9 - - SSW
24.05.2018 19:00:00 11,7 4,1 26 14 - - S
24.05.2018 18:00:00 12,1 4,9 24 13 - - S
24.05.2018 17:00:00 12,3 4,3 35 19 50 27 S
24.05.2018 16:00:00 12,6 2,9 37 20 50 27 S
24.05.2018 15:00:00 11,9 3,1 41 22 50 27 S
24.05.2018 14:00:00 11,4 4,4 37 20 50 27 S
24.05.2018 13:00:00 10,6 4,4 31 17 - - S
24.05.2018 12:00:00 8,7 4,1 31 17 - - SSW
24.05.2018 11:00:00 7,8 2,5 24 13 - - SSW
24.05.2018 10:00:00 8,4 1,8 26 14 - - S
24.05.2018 09:00:00 8,3 2,3 24 13 - - S
24.05.2018 08:00:00 7,6 1,3 26 14 - - S
24.05.2018 07:00:00 7,4 -0,4 26 14 - - S
24.05.2018 06:00:00 7,9 -2,1 22 12 - - S
24.05.2018 05:00:00 7,8 0,2 22 12 - - S
24.05.2018 04:00:00 7,7 0,1 22 12 - - S
24.05.2018 03:00:00 8,0 -0,2 22 12 - - S
24.05.2018 02:00:00 7,8 0,1 22 12 - - S
24.05.2018 01:00:00 8,0 0,6 18 10 - - S
24.05.2018 00:00:00 7,7 2,8 16 9 - - SSE
23.05.2018 23:00:00 8,2 3,6 15 8 - - S
23.05.2018 22:00:00 9,0 3,1 15 8 - - S
23.05.2018 21:00:00 9,0 3,0 16 9 - - S
23.05.2018 20:00:00 7,9 5,4 22 12 - - SSW
23.05.2018 19:00:00 9,1 5,6 26 14 - - S
23.05.2018 18:00:00 9,5 6,3 28 15 - - S
23.05.2018 17:00:00 10,2 6,0 28 15 - - SSW
23.05.2018 16:00:00 9,9 5,2 24 13 - - S
23.05.2018 15:00:00 9,3 3,5 15 8 - - S
23.05.2018 14:00:00 8,5 3,7 16 9 - - SSW
23.05.2018 13:00:00 7,6 3,1 11 6 - - S
23.05.2018 12:00:00 6,1 1,6 11 6 - - S
23.05.2018 11:00:00 4,9 3,2 9 5 - - S
23.05.2018 10:00:00 4,8 2,3 9 5 - - SSW
23.05.2018 09:00:00 4,8 2,3 4 2 - - WNW
23.05.2018 08:00:00 4,1 3,2 5 3 - - WSW
23.05.2018 07:00:00 4,1 3,8 5 3 - - WNW
23.05.2018 06:00:00 3,8 3,8 9 5 - - W
23.05.2018 05:00:00 4,3 4,3 9 5 - - WSW
23.05.2018 04:00:00 4,4 4,4 9 5 - - WNW
23.05.2018 03:00:00 4,1 4,1 5 3 - - WNW
23.05.2018 02:00:00 4,3 4,3 9 5 - - WNW
23.05.2018 01:00:00 3,5 3,5 5 3 - - WSW
23.05.2018 00:00:00 2,6 2,6 9 5 - - N
22.05.2018 23:00:00 2,9 2,9 8 4 - - N
22.05.2018 22:00:00 3,0 3,0 11 6 - - NNE
22.05.2018 21:00:00 3,1 3,1 15 8 - - N
22.05.2018 20:00:00 3,3 3,1 21 11 - - N
22.05.2018 19:00:00 3,6 3,5 22 12 - - NNE
22.05.2018 18:00:00 3,9 2,6 24 13 - - NNE
22.05.2018 17:00:00 3,9 3,1 26 14 - - NNE
22.05.2018 16:00:00 4,2 2,8 22 12 - - NNE
22.05.2018 15:00:00 4,1 3,0 28 15 - - NNE
22.05.2018 14:00:00 4,3 1,6 29 16 - - NNE
22.05.2018 13:00:00 3,4 1,8 34 18 - - NNE
22.05.2018 12:00:00 2,7 2,3 35 19 48 26 NNE
22.05.2018 11:00:00 2,0 2,0 41 22 54 29 NNE
22.05.2018 10:00:00 1,8 1,8 42 23 54 29 NNE
22.05.2018 09:00:00 1,4 1,4 44 24 59 32 NNE
22.05.2018 08:00:00 1,2 1,2 46 25 72 39 NNE
22.05.2018 07:00:00 1,2 1,2 54 29 72 39 NNE
22.05.2018 06:00:00 1,2 1,2 55 30 68 37 NNE
22.05.2018 05:00:00 1,1 1,1 54 29 67 36 NNE
22.05.2018 04:00:00 1,1 1,1 54 29 68 37 NNE
22.05.2018 03:00:00 1,0 1,0 63 34 74 40 NNE
22.05.2018 02:00:00 1,2 1,2 59 32 74 40 NNE
22.05.2018 01:00:00 1,2 1,2 59 32 68 37 NNE
22.05.2018 00:00:00 1,5 1,5 55 30 70 38 NNE
21.05.2018 23:00:00 1,6 1,6 55 30 72 39 NNE
21.05.2018 22:00:00 2,1 2,1 50 27 57 31 NNE
21.05.2018 21:00:00 3,2 3,1 35 19 - - NNE
21.05.2018 20:00:00 5,7 4,8 24 13 - - NNE
21.05.2018 19:00:00 10,3 6,3 24 13 - - SW
21.05.2018 18:00:00 11,3 6,5 29 16 - - SW
21.05.2018 17:00:00 10,4 6,1 35 19 48 26 SW
21.05.2018 16:00:00 10,2 6,6 41 22 57 31 SSW
21.05.2018 15:00:00 10,3 5,9 46 25 59 32 SSW
21.05.2018 14:00:00 10,0 5,8 52 28 63 34 SSW
21.05.2018 13:00:00 10,0 5,8 52 28 68 37 SSW
21.05.2018 12:00:00 9,0 6,5 46 25 59 32 SSW
21.05.2018 11:00:00 9,2 6,0 44 24 61 33 S
21.05.2018 10:00:00 8,2 4,7 42 23 55 30 S
21.05.2018 09:00:00 7,4 5,1 39 21 48 26 S
21.05.2018 08:00:00 6,3 4,9 37 20 46 25 S
21.05.2018 07:00:00 5,7 4,1 31 17 - - SSW
21.05.2018 06:00:00 5,6 4,2 26 14 - - S
21.05.2018 05:00:00 5,4 4,6 31 17 - - S
21.05.2018 04:00:00 5,2 5,2 26 14 - - S
21.05.2018 03:00:00 5,7 5,7 29 16 - - SSW
21.05.2018 02:00:00 6,0 6,0 41 22 48 26 SSW
21.05.2018 01:00:00 6,1 6,1 35 19 46 25 S
21.05.2018 00:00:00 6,8 6,8 41 22 59 32 S
20.05.2018 23:00:00 6,8 6,8 39 21 55 30 S
20.05.2018 22:00:00 7,2 7,0 46 25 70 38 S
20.05.2018 21:00:00 7,4 7,4 57 31 72 39 SSW
20.05.2018 20:00:00 7,6 7,3 57 31 65 35 S
20.05.2018 19:00:00 7,9 7,2 54 29 70 38 S
20.05.2018 18:00:00 8,5 6,7 61 33 70 38 S
20.05.2018 17:00:00 8,1 6,7 42 23 59 32 SSW
20.05.2018 16:00:00 7,9 6,4 54 29 70 38 S
20.05.2018 15:00:00 7,6 6,3 74 40 91 49 SSW
20.05.2018 14:00:00 6,8 6,8 61 33 68 37 S
20.05.2018 13:00:00 6,4 6,4 61 33 72 39 SSW
20.05.2018 12:00:00 5,8 5,6 57 31 83 45 S
20.05.2018 11:00:00 5,1 5,1 67 36 85 46 SSW
20.05.2018 10:00:00 4,9 4,9 67 36 85 46 SSW
20.05.2018 09:00:00 4,6 4,6 59 32 74 40 S
20.05.2018 08:00:00 4,4 4,4 55 30 68 37 SSW
20.05.2018 07:00:00 4,4 4,4 55 30 67 36 S
20.05.2018 06:00:00 4,6 4,5 54 29 63 34 SSW
20.05.2018 05:00:00 4,8 4,8 54 29 65 35 SSW
20.05.2018 04:00:00 5,2 4,7 57 31 68 37 SSW
20.05.2018 03:00:00 5,6 4,6 52 28 68 37 S
20.05.2018 02:00:00 6,1 4,5 54 29 67 36 SSW
20.05.2018 01:00:00 6,1 4,2 46 25 55 30 S
20.05.2018 00:00:00 6,3 4,4 44 24 67 36 SSW
19.05.2018 23:00:00 7,1 4,5 50 27 67 36 SSW
19.05.2018 22:00:00 8,0 5,1 59 32 67 36 S
19.05.2018 21:00:00 8,6 4,0 54 29 74 40 SSW
19.05.2018 20:00:00 9,2 3,2 50 27 67 36 S
19.05.2018 19:00:00 10,1 4,6 57 31 70 38 S
19.05.2018 18:00:00 10,7 4,3 59 32 72 39 SSW
19.05.2018 17:00:00 10,9 4,7 52 28 72 39 S
19.05.2018 16:00:00 10,7 3,4 59 32 74 40 S
19.05.2018 15:00:00 10,5 3,5 54 29 76 41 S
19.05.2018 14:00:00 9,6 4,2 50 27 65 35 SSW
19.05.2018 13:00:00 9,8 4,5 42 23 55 30 S
19.05.2018 12:00:00 8,8 3,9 44 24 57 31 S
19.05.2018 11:00:00 8,7 4,9 39 21 52 28 S
19.05.2018 10:00:00 7,8 3,8 34 18 52 28 SSW
19.05.2018 09:00:00 6,9 4,6 31 17 - - SSW
19.05.2018 08:00:00 5,9 4,2 26 14 - - SSW
19.05.2018 07:00:00 6,1 4,0 24 13 - - SW
19.05.2018 06:00:00 6,0 3,5 18 10 - - WSW
19.05.2018 05:00:00 5,8 5,2 16 9 - - WSW
19.05.2018 04:00:00 5,9 5,7 21 11 - - WSW

tt = temperature
td = dewpoint
ff = wind speed
fx = gusts
dd = wind direction

Next stations